Terminal Aerodrome Forecast
Issued by NWS Bismarck, ND

Home | Current Version | Previous Version | Graphics & Text | Print | Product List | Glossary On
Versions: 1 2 3 4 5 6 7 8 9 10 11 12 13 14 15 16
121
FTUS43 KBIS 201730
TAFISN
TAF
KISN 201730Z 2018/2118 25015KT P6SM SCT030 SCT040 OVC060
      TEMPO 2018/2022 BKN040 BKN060 BKN130
     FM202200 25012KT P6SM SCT090
     FM210000 24008KT P6SM FEW200
     FM211300 23004KT P6SM SCT140=

USA.gov is the U.S. government's official web portal to all federal, state and local government web resources and services.